createdAt,value
2018-10-11T00:01:41.080Z,98578.84
2018-10-11T00:04:46.032Z,98581.56
2018-10-11T00:07:50.984Z,98574.09
2018-10-11T00:10:55.937Z,98582.52
2018-10-11T00:14:00.918Z,98584.56
2018-10-11T00:17:06.100Z,98583.06
2018-10-11T00:20:11.090Z,98576.48
2018-10-11T00:23:16.091Z,98584.52
2018-10-11T00:26:21.911Z,98585.53
2018-10-11T00:29:27.896Z,98579.91
2018-10-11T00:32:32.917Z,98581.47
2018-10-11T00:35:38.332Z,98575.55
2018-10-11T00:38:43.369Z,98577.62
2018-10-11T00:41:48.359Z,98577.89
2018-10-11T00:44:54.170Z,98579.84
2018-10-11T00:47:59.148Z,98586.42
2018-10-11T00:51:04.308Z,98581.05
2018-10-11T00:54:09.577Z,98580.55
2018-10-11T00:57:14.541Z,98582.86
2018-10-11T01:00:19.566Z,98573.41
2018-10-11T01:03:24.592Z,98578.80
2018-10-11T01:06:29.579Z,98579.86
2018-10-11T01:09:34.573Z,98575.48
2018-10-11T01:12:39.558Z,98571.20
2018-10-11T01:15:44.522Z,98571.69
2018-10-11T01:18:49.480Z,98559.27
2018-10-11T01:21:54.438Z,98557.25
2018-10-11T01:24:59.393Z,98553.93
2018-10-11T01:28:04.391Z,98557.91
2018-10-11T01:31:15.269Z,98548.72
2018-10-11T01:34:20.275Z,98546.20
2018-10-11T01:37:26.464Z,98541.08
2018-10-11T01:40:31.544Z,98548.16
2018-10-11T01:43:36.550Z,98546.00
2018-10-11T01:46:41.537Z,98544.49
2018-10-11T01:49:46.538Z,98538.23
2018-10-11T01:52:51.534Z,98533.77
2018-10-11T01:55:56.539Z,98530.98
2018-10-11T01:59:01.534Z,98534.08
2018-10-11T02:02:06.546Z,98530.77
2018-10-11T02:05:11.529Z,98532.05
2018-10-11T02:08:16.536Z,98530.67
2018-10-11T02:11:21.510Z,98537.97
2018-10-11T02:14:26.492Z,98543.48
2018-10-11T02:17:32.261Z,98537.25
2018-10-11T02:20:37.198Z,98526.48
2018-10-11T02:23:42.898Z,98527.00
2018-10-11T02:26:47.830Z,98523.43
2018-10-11T02:29:52.771Z,98517.55
2018-10-11T02:32:57.752Z,98519.23
2018-10-11T02:36:02.714Z,98512.48
2018-10-11T02:39:08.771Z,98513.49
2018-10-11T02:42:13.734Z,98508.38
2018-10-11T02:45:18.690Z,98508.90
2018-10-11T02:48:23.653Z,98504.05
2018-10-11T02:51:28.644Z,98507.88
2018-10-11T02:54:33.630Z,98505.85
2018-10-11T02:57:50.078Z,98502.02
2018-10-11T03:00:55.141Z,98501.66
2018-10-11T03:04:02.162Z,98496.70
2018-10-11T03:07:08.425Z,98500.02
2018-10-11T03:10:14.049Z,98511.17
2018-10-11T03:13:19.033Z,98512.81
2018-10-11T03:16:23.994Z,98511.80
2018-10-11T03:19:28.945Z,98512.72
2018-10-11T03:22:33.956Z,98513.87
2018-10-11T03:25:40.585Z,98515.80
2018-10-11T03:28:45.564Z,98510.81
2018-10-11T03:31:50.507Z,98513.14
2018-10-11T03:34:55.445Z,98514.20
2018-10-11T03:38:00.469Z,98516.00
2018-10-11T03:41:05.593Z,98507.83
2018-10-11T03:44:10.554Z,98510.13
2018-10-11T03:47:15.528Z,98513.95
2018-10-11T03:50:20.775Z,98513.95
2018-10-11T03:53:25.732Z,98517.30
2018-10-11T03:56:30.706Z,98511.92
2018-10-11T03:59:35.728Z,98511.82
2018-10-11T04:02:40.725Z,98514.90
2018-10-11T04:05:45.699Z,98517.09
2018-10-11T04:08:50.662Z,98519.91
2018-10-11T04:11:55.605Z,98514.56
2018-10-11T04:15:00.545Z,98527.60
2018-10-11T04:18:05.910Z,98529.89
2018-10-11T04:21:12.948Z,98547.81
2018-10-11T04:24:17.953Z,98546.44
2018-10-11T04:27:22.929Z,98544.00
2018-10-11T04:30:27.900Z,98546.06
2018-10-11T04:33:32.853Z,98547.83
2018-10-11T04:36:37.795Z,98535.05
2018-10-11T04:39:42.740Z,98528.42
2018-10-11T04:42:47.795Z,98533.00
2018-10-11T04:45:52.663Z,98537.23
2018-10-11T04:48:57.607Z,98537.75
2018-10-11T04:52:02.576Z,98529.19
2018-10-11T04:55:07.604Z,98530.34
2018-10-11T04:58:12.555Z,98522.28
2018-10-11T05:01:17.494Z,98534.80
2018-10-11T05:04:22.437Z,98544.78
2018-10-11T05:07:27.369Z,98559.75
2018-10-11T05:10:32.553Z,98558.48
2018-10-11T05:14:56.936Z,98557.73
2018-10-11T05:18:02.751Z,98552.73
2018-10-11T05:21:08.937Z,98550.44
2018-10-11T05:24:13.890Z,98557.73
2018-10-11T05:27:18.896Z,98564.52
2018-10-11T05:30:23.993Z,98558.13
2018-10-11T05:33:29.182Z,98558.88
2018-10-11T05:36:34.230Z,98563.23
2018-10-11T05:39:39.281Z,98565.38
2018-10-11T05:42:44.323Z,98574.95
2018-10-11T05:45:52.781Z,98583.02
2018-10-11T05:48:58.715Z,98591.22
2018-10-11T05:52:03.729Z,98590.57
2018-10-11T05:55:08.801Z,98584.92
2018-10-11T05:58:13.814Z,98584.42
2018-10-11T06:01:19.091Z,98591.31
2018-10-11T06:04:24.128Z,98587.23
2018-10-11T06:07:29.178Z,98594.15
2018-10-11T06:10:35.854Z,98599.52
2018-10-11T06:13:41.612Z,98592.36
2018-10-11T06:16:46.603Z,98596.68
2018-10-11T06:19:51.702Z,98599.61
2018-10-11T06:22:56.730Z,98600.89
2018-10-11T06:26:02.044Z,98600.48
2018-10-11T06:29:07.749Z,98606.76
2018-10-11T06:32:12.786Z,98609.70
2018-10-11T06:35:17.829Z,98607.63
2018-10-11T06:38:22.831Z,98626.94
2018-10-11T06:41:27.845Z,98621.17
2018-10-11T06:44:32.835Z,98623.34
2018-10-11T06:47:37.822Z,98632.66
2018-10-11T06:50:44.234Z,98646.49
2018-10-11T06:53:49.823Z,98655.44
2018-10-11T06:56:55.701Z,98650.19
2018-10-11T07:00:01.774Z,98655.39
2018-10-11T07:03:07.633Z,98659.71
2018-10-11T07:06:13.593Z,98661.47
2018-10-11T07:09:18.541Z,98658.61
2018-10-11T07:12:23.489Z,98652.94
2018-10-11T07:15:28.491Z,98652.38
2018-10-11T07:18:33.453Z,98659.08
2018-10-11T07:21:38.534Z,98659.63
2018-10-11T07:24:43.509Z,98662.33
2018-10-11T07:27:48.510Z,98665.81
2018-10-11T07:30:53.478Z,98666.98
2018-10-11T07:33:58.446Z,98672.70
2018-10-11T07:37:03.425Z,98680.26
2018-10-11T07:40:08.402Z,98680.34
2018-10-11T07:43:13.351Z,98681.28
2018-10-11T07:46:18.329Z,98668.63
2018-10-11T07:49:23.283Z,98666.30
2018-10-11T07:52:28.244Z,98664.60
2018-10-11T07:55:33.221Z,98659.66
2018-10-11T07:58:38.373Z,98662.66
2018-10-11T08:01:43.394Z,98666.19
2018-10-11T08:04:48.314Z,98664.36
2018-10-11T08:07:53.285Z,98663.47
2018-10-11T08:10:58.421Z,98672.55
2018-10-11T08:14:03.296Z,98664.41
2018-10-11T08:17:08.617Z,98667.39
2018-10-11T08:20:13.316Z,98678.44
2018-10-11T08:23:18.249Z,98665.30
2018-10-11T08:26:23.511Z,98654.80
2018-10-11T08:29:28.241Z,98658.42
2018-10-11T08:32:33.426Z,98662.30
2018-10-11T08:35:38.234Z,98660.48
2018-10-11T08:38:43.308Z,98655.28
2018-10-11T08:41:48.219Z,98657.33
2018-10-11T08:44:53.173Z,98655.45
2018-10-11T08:47:58.114Z,98647.84
2018-10-11T08:51:03.160Z,98649.41
2018-10-11T08:54:13.979Z,98656.28
2018-10-11T08:57:20.146Z,98651.20
2018-10-11T09:00:25.165Z,98649.58
2018-10-11T09:03:30.151Z,98653.94
2018-10-11T09:06:35.095Z,98650.38
2018-10-11T09:09:41.545Z,98659.02
2018-10-11T09:12:46.478Z,98651.22
2018-10-11T09:15:51.457Z,98650.62
2018-10-11T09:18:59.196Z,98643.09
2018-10-11T09:22:10.618Z,98648.68
2018-10-11T09:25:16.339Z,98647.45
2018-10-11T09:28:24.271Z,98638.83
2018-10-11T09:31:30.447Z,98634.20
2018-10-11T09:34:36.571Z,98638.08
2018-10-11T09:37:43.870Z,98625.67
2018-10-11T09:40:50.198Z,98629.58
2018-10-11T09:43:55.382Z,98628.61
2018-10-11T09:47:00.522Z,98617.34
2018-10-11T09:50:06.390Z,98620.31
2018-10-11T09:53:15.622Z,98617.09
2018-10-11T09:56:24.591Z,98623.16
2018-10-11T09:59:32.049Z,98628.47
2018-10-11T10:02:38.779Z,98634.30
2018-10-11T10:05:44.902Z,98635.30
2018-10-11T10:08:51.220Z,98647.82
2018-10-11T10:11:56.397Z,98648.25
2018-10-11T10:15:03.666Z,98658.02
2018-10-11T10:18:11.025Z,98663.34
2018-10-11T10:21:21.333Z,98659.20
2018-10-11T10:24:27.106Z,98661.78
2018-10-11T10:27:36.583Z,98658.73
2018-10-11T10:30:54.958Z,98663.59
2018-10-11T10:33:59.997Z,98659.31
2018-10-11T10:37:06.401Z,98657.13
2018-10-11T10:40:11.379Z,98650.23
2018-10-11T10:43:16.356Z,98650.45
2018-10-11T10:46:21.508Z,98653.59
2018-10-11T10:49:26.492Z,98652.04
2018-10-11T10:52:31.462Z,98656.05
2018-10-11T10:55:36.438Z,98647.64
2018-10-11T10:58:41.419Z,98660.25
2018-10-11T11:01:46.481Z,98651.47
2018-10-11T11:04:51.446Z,98642.25
2018-10-11T11:07:56.446Z,98642.98
2018-10-11T11:11:01.391Z,98642.27
2018-10-11T11:14:06.580Z,98640.86
2018-10-11T11:17:11.543Z,98633.97
2018-10-11T11:20:16.534Z,98624.72
2018-10-11T11:23:21.527Z,98619.52
2018-10-11T11:26:26.558Z,98617.21
2018-10-11T11:29:31.545Z,98609.30
2018-10-11T11:32:36.563Z,98605.81
2018-10-11T11:35:41.654Z,98606.59
2018-10-11T11:38:46.604Z,98602.42
2018-10-11T11:41:51.613Z,98605.22
2018-10-11T11:44:56.703Z,98606.56
2018-10-11T11:48:08.394Z,98595.69
2018-10-11T11:51:15.515Z,98592.34
2018-10-11T11:54:23.937Z,98590.22
2018-10-11T11:57:31.934Z,98589.77
2018-10-11T12:00:40.493Z,98585.19
2018-10-11T12:03:48.369Z,98586.16
2018-10-11T12:06:53.758Z,98582.56
2018-10-11T12:09:59.582Z,98574.50
2018-10-11T12:15:02.202Z,98574.03
2018-10-11T12:18:09.782Z,98581.56
2018-10-11T12:21:15.046Z,98577.23
2018-10-11T12:24:24.585Z,98581.37
2018-10-11T12:27:30.801Z,98582.67
2018-10-11T12:30:37.190Z,98579.56
2018-10-11T12:33:43.287Z,98576.98
2018-10-11T12:36:50.505Z,98578.05
2018-10-11T12:39:56.945Z,98584.92
2018-10-11T12:43:07.870Z,98583.16
2018-10-11T12:46:13.859Z,98581.14
2018-10-11T12:49:19.040Z,98585.41
2018-10-11T12:52:26.215Z,98582.47
2018-10-11T12:55:32.626Z,98576.44
2018-10-11T12:58:38.126Z,98578.70
2018-10-11T13:01:43.404Z,98581.97
2018-10-11T13:04:49.904Z,98589.84
2018-10-11T13:08:00.035Z,98585.30
2018-10-11T13:11:09.370Z,98583.78
2018-10-11T13:14:16.138Z,98592.17
2018-10-11T13:17:22.919Z,98591.62
2018-10-11T13:20:30.714Z,98601.56
2018-10-11T13:23:37.111Z,98614.86
2018-10-11T13:26:47.276Z,98610.91
2018-10-11T13:29:53.901Z,98609.78
2018-10-11T13:33:02.535Z,98612.28
2018-10-11T13:36:10.330Z,98615.52
2018-10-11T13:39:19.339Z,98613.70
2018-10-11T13:42:25.183Z,98609.45
2018-10-11T13:45:32.429Z,98615.38
2018-10-11T13:48:40.205Z,98607.27
2018-10-11T13:51:49.252Z,98610.64
2018-10-11T13:54:56.290Z,98607.47
2018-10-11T13:58:02.205Z,98604.69
2018-10-11T14:01:10.543Z,98609.64
2018-10-11T14:04:19.616Z,98618.27
2018-10-11T14:07:27.171Z,98619.20
2018-10-11T14:10:35.185Z,98610.64
2018-10-11T14:13:40.894Z,98605.97
2018-10-11T14:16:46.846Z,98612.88
2018-10-11T14:19:54.262Z,98610.43
2018-10-11T14:23:03.939Z,98607.41
2018-10-11T14:26:09.146Z,98595.39
2018-10-11T14:32:27.203Z,98596.75
2018-10-11T14:35:34.936Z,98609.70
2018-10-11T14:38:40.822Z,98611.95
2018-10-11T14:41:46.112Z,98603.45
2018-10-11T14:44:51.185Z,98596.30
2018-10-11T14:47:56.268Z,98588.81
2018-10-11T14:51:02.532Z,98593.31
2018-10-11T14:54:08.053Z,98585.87
2018-10-11T14:57:13.117Z,98590.36
2018-10-11T15:00:19.485Z,98600.34
2018-10-11T15:03:25.136Z,98602.29
2018-10-11T15:06:30.919Z,98601.38
2018-10-11T15:09:35.930Z,98606.38
2018-10-11T15:12:40.962Z,98607.96
2018-10-11T15:15:46.252Z,98610.63
2018-10-11T15:18:51.156Z,98611.78
2018-10-11T15:21:56.695Z,98609.78
2018-10-11T15:25:01.769Z,98616.45
2018-10-11T15:28:06.792Z,98616.34
2018-10-11T15:31:12.875Z,98613.37
2018-10-11T15:34:18.553Z,98617.28
2018-10-11T15:37:24.713Z,98617.88
2018-10-11T15:40:29.811Z,98610.34
2018-10-11T15:43:34.905Z,98610.34
2018-10-11T15:46:40.531Z,98611.64
2018-10-11T15:49:45.546Z,98614.03
2018-10-11T15:52:51.276Z,98616.80
2018-10-11T15:55:56.283Z,98612.42
2018-10-11T15:59:01.461Z,98615.48
2018-10-11T16:02:07.966Z,98619.49
2018-10-11T16:05:13.427Z,98623.29
2018-10-11T16:08:19.362Z,98618.34
2018-10-11T16:11:24.374Z,98612.30
2018-10-11T16:14:30.141Z,98624.70
2018-10-11T16:17:36.004Z,98624.09
2018-10-11T16:20:41.014Z,98628.67
2018-10-11T16:23:50.509Z,98636.00
2018-10-11T16:26:55.505Z,98636.84
2018-10-11T16:30:00.457Z,98643.92
2018-10-11T16:33:08.547Z,98654.57
2018-10-11T16:36:15.717Z,98649.19
2018-10-11T16:39:21.306Z,98654.29
2018-10-11T16:42:27.131Z,98663.73
2018-10-11T16:45:32.655Z,98656.31
2018-10-11T16:48:38.567Z,98653.47
2018-10-11T16:51:44.408Z,98654.31
2018-10-11T16:54:50.076Z,98654.66
2018-10-11T16:57:55.090Z,98664.59
2018-10-11T17:01:01.803Z,98659.61
2018-10-11T17:04:07.659Z,98664.44
2018-10-11T17:07:12.657Z,98672.06
2018-10-11T17:10:18.017Z,98678.03
2018-10-11T17:13:23.327Z,98687.92
2018-10-11T17:16:28.286Z,98686.38
2018-10-11T17:19:34.475Z,98679.95
2018-10-11T17:22:40.514Z,98677.56
2018-10-11T17:25:46.162Z,98681.19
2018-10-11T17:28:51.190Z,98688.58
2018-10-11T17:31:56.242Z,98698.15
2018-10-11T17:35:01.283Z,98689.81
2018-10-11T17:38:06.553Z,98693.80
2018-10-11T17:41:12.563Z,98693.59
2018-10-11T17:44:18.560Z,98690.86
2018-10-11T17:47:23.684Z,98696.01
2018-10-11T17:50:28.721Z,98698.72
2018-10-11T17:53:34.581Z,98700.96
2018-10-11T17:56:39.600Z,98701.19
2018-10-11T17:59:44.804Z,98701.58
2018-10-11T18:02:50.542Z,98711.83
2018-10-11T18:05:56.581Z,98711.05
2018-10-11T18:09:01.620Z,98717.22
2018-10-11T18:12:06.970Z,98722.55
2018-10-11T18:15:12.887Z,98721.45
2018-10-11T18:18:17.893Z,98710.70
2018-10-11T18:21:22.885Z,98706.73
2018-10-11T18:24:27.911Z,98711.86
2018-10-11T18:27:33.908Z,98719.58
2018-10-11T18:30:39.108Z,98719.10
2018-10-11T18:33:45.390Z,98732.77
2018-10-11T18:36:50.479Z,98725.84
2018-10-11T18:39:56.278Z,98736.75
2018-10-11T18:43:01.929Z,98740.47
2018-10-11T18:46:07.145Z,98740.16
2018-10-11T18:49:12.270Z,98749.70
2018-10-11T18:52:18.195Z,98749.34
2018-10-11T18:55:24.161Z,98743.06
2018-10-11T18:58:29.388Z,98747.92
2018-10-11T19:01:35.910Z,98745.49
2018-10-11T19:04:41.224Z,98745.49
2018-10-11T19:07:47.050Z,98750.67
2018-10-11T19:10:52.643Z,98753.48
2018-10-11T19:13:58.346Z,98758.76
2018-10-11T19:17:04.222Z,98764.53
2018-10-11T19:20:09.272Z,98772.52
2018-10-11T19:23:15.119Z,98766.94
2018-10-11T19:26:20.981Z,98764.44
2018-10-11T19:29:26.016Z,98764.34
2018-10-11T19:32:31.018Z,98761.06
2018-10-11T19:35:36.015Z,98763.24
2018-10-11T19:38:41.022Z,98761.66
2018-10-11T19:41:46.105Z,98757.27
2018-10-11T19:44:52.084Z,98754.97
2018-10-11T19:47:57.083Z,98755.95
2018-10-11T19:51:03.234Z,98763.63
2018-10-11T19:54:08.967Z,98767.59
2018-10-11T19:57:15.298Z,98762.89
2018-10-11T20:00:22.337Z,98764.44
2018-10-11T20:03:28.102Z,98763.94
2018-10-11T20:06:33.970Z,98773.72
2018-10-11T20:09:39.014Z,98773.94
2018-10-11T20:12:44.729Z,98775.48
2018-10-11T20:15:50.481Z,98780.15
2018-10-11T20:18:56.390Z,98781.85
2018-10-11T20:22:03.254Z,98787.13
2018-10-11T20:25:09.048Z,98784.85
2018-10-11T20:28:14.005Z,98789.55
2018-10-11T20:31:19.081Z,98785.67
2018-10-11T20:34:25.126Z,98783.71
2018-10-11T20:37:30.116Z,98788.22
2018-10-11T20:40:36.273Z,98788.53
2018-10-11T20:43:42.270Z,98792.97
2018-10-11T20:46:47.257Z,98783.14
2018-10-11T20:49:53.075Z,98785.88
2018-10-11T20:52:59.193Z,98787.31
2018-10-11T20:56:04.989Z,98786.89
2018-10-11T20:59:10.000Z,98791.19
2018-10-11T21:02:15.717Z,98787.59
2018-10-11T21:05:21.501Z,98783.41
2018-10-11T21:08:27.229Z,98781.70
2018-10-11T21:15:10.934Z,98774.98
2018-10-11T21:18:15.909Z,98779.27
2018-10-11T21:21:22.681Z,98782.05
2018-10-11T21:24:28.469Z,98782.66
2018-10-11T21:27:33.474Z,98784.47
2018-10-11T21:30:38.523Z,98786.51
2018-10-11T21:33:44.739Z,98792.25
2018-10-11T21:36:50.525Z,98800.00
2018-10-11T21:39:56.150Z,98808.16
2018-10-11T21:43:01.345Z,98809.05
2018-10-11T21:46:07.210Z,98813.73
2018-10-11T21:49:12.222Z,98816.31
2018-10-11T21:52:18.046Z,98814.81
2018-10-11T21:55:24.082Z,98817.05
2018-10-11T21:58:29.101Z,98811.63
2018-10-11T22:01:34.781Z,98819.17
2018-10-11T22:04:40.082Z,98833.02
2018-10-11T22:07:45.106Z,98829.56
2018-10-11T22:10:50.955Z,98824.72
2018-10-11T22:13:55.975Z,98817.69
2018-10-11T22:17:02.239Z,98813.34
2018-10-11T22:20:07.298Z,98812.84
2018-10-11T22:23:12.314Z,98810.19
2018-10-11T22:26:18.169Z,98820.41
2018-10-11T22:29:23.561Z,98823.70
2018-10-11T22:32:29.243Z,98827.67
2018-10-11T22:35:35.089Z,98834.72
2018-10-11T22:38:41.456Z,98838.21
2018-10-11T22:41:46.467Z,98839.86
2018-10-11T22:44:51.543Z,98848.29
2018-10-11T22:47:57.327Z,98856.90
2018-10-11T22:51:02.370Z,98854.80
2018-10-11T22:54:08.009Z,98859.97
2018-10-11T22:57:12.980Z,98864.31
2018-10-11T23:00:18.949Z,98866.16
2018-10-11T23:03:23.941Z,98870.02
2018-10-11T23:06:30.290Z,98879.36
2018-10-11T23:09:35.281Z,98882.39
2018-10-11T23:12:40.244Z,98878.91
2018-10-11T23:15:46.026Z,98885.00
2018-10-11T23:18:51.038Z,98900.42
2018-10-11T23:21:56.857Z,98907.88
2018-10-11T23:25:01.848Z,98910.33
2018-10-11T23:28:07.612Z,98926.19
2018-10-11T23:31:12.569Z,98937.93
2018-10-11T23:34:17.537Z,98941.30
2018-10-11T23:37:22.485Z,98946.14
2018-10-11T23:40:28.264Z,98951.36
2018-10-11T23:43:33.262Z,98956.11
2018-10-11T23:46:38.396Z,98956.30
2018-10-11T23:49:44.389Z,98959.96
2018-10-11T23:52:50.041Z,98952.27
2018-10-11T23:55:55.789Z,98953.75
2018-10-11T23:59:01.752Z,98956.88
